Time;durP1;ratioP1;P1;durP2;ratioP2;P2;SDS_P1;SDS_P2;PMS_P1;PMS_P2;Temp;Humidity;BMP_temperature;BMP_pressure;BME280_temperature;BME280_humidity;BME280_pressure;Samples;Min_cycle;Max_cycle;Signal;HPM_P1;HPM_P2
2023/01/10 00:00:34;;;;;;;3.92;2.35;;;;;;;5.05;100.00;99937.03;6125246;23;20022;-81
2023/01/10 00:03:02;;;;;;;3.65;1.58;;;;;;;5.33;100.00;99979.03;6125075;23;20030;-81
2023/01/10 00:05:29;;;;;;;6.68;2.28;;;;;;;4.99;100.00;99932.84;6125588;23;20014;-80
2023/01/10 00:07:57;;;;;;;4.60;1.30;;;;;;;5.33;100.00;100000.03;6125466;23;20018;-81
2023/01/10 00:10:24;;;;;;;4.55;1.80;;;;;;;4.93;100.00;99948.78;6128216;23;20076;-81
2023/01/10 00:15:37;;;;;;;4.20;1.50;;;;;;;5.51;100.00;100055.44;6131322;23;20014;-82
2023/01/10 00:18:04;;;;;;;1.83;1.50;;;;;;;4.62;100.00;99906.91;6144538;23;20034;-82
2023/01/10 00:20:30;;;;;;;3.20;1.40;;;;;;;5.58;100.00;100063.97;6135105;23;20018;-81
2023/01/10 00:22:57;;;;;;;3.80;1.60;;;;;;;5.27;100.00;99990.56;6139000;23;20391;-81
2023/01/10 00:25:24;;;;;;;3.80;1.20;;;;;;;5.51;100.00;100034.41;6139991;23;20403;-82
2023/01/10 00:30:39;;;;;;;2.00;1.13;;;;;;;5.63;100.00;100048.94;6139850;23;20021;-81
2023/01/10 00:33:07;;;;;;;4.82;1.48;;;;;;;5.70;100.00;100055.69;6133284;23;20052;-80
2023/01/10 00:35:34;;;;;;;2.60;1.50;;;;;;;4.82;100.00;99930.75;6124335;23;20018;-80
2023/01/10 00:38:04;;;;;;;4.13;1.20;;;;;;;5.65;100.00;100076.03;6125625;23;20025;-81
2023/01/10 00:40:32;;;;;;;3.70;1.25;;;;;;;4.90;100.00;99941.84;6125265;23;20025;-82
2023/01/10 00:45:46;;;;;;;3.60;1.13;;;;;;;4.67;100.00;99909.38;6124473;23;20018;-81
2023/01/10 00:48:14;;;;;;;1.77;1.00;;;;;;;4.49;100.00;99874.09;6124270;23;20030;-81
2023/01/10 00:50:41;;;;;;;3.58;1.20;;;;;;;5.84;100.00;100100.78;6123977;23;20024;-80
2023/01/10 00:53:08;;;;;;;2.42;1.10;;;;;;;5.40;100.00;100027.78;6124813;23;20052;-84
2023/01/10 00:55:35;;;;;;;2.92;1.20;;;;;;;5.72;100.00;100071.41;6129726;23;20014;-82
2023/01/10 00:58:02;;;;;;;2.90;1.10;;;;;;;5.76;100.00;100083.56;6131945;23;20018;-82
2023/01/10 01:00:29;;;;;;;1.27;1.05;;;;;;;5.71;100.00;100069.69;6124179;23;20309;-81
2023/01/10 01:02:55;;;;;;;3.28;1.02;;;;;;;5.96;100.00;100089.91;6123338;23;20029;-83
2023/01/10 01:05:22;;;;;;;2.90;1.25;;;;;;;6.09;100.00;100124.53;6123621;23;20028;-81
2023/01/10 01:07:50;;;;;;;3.10;1.13;;;;;;;6.23;100.00;100158.25;6123972;23;20026;-82
2023/01/10 01:10:26;;;;;;;3.58;1.00;;;;;;;5.82;100.00;100100.00;6123896;23;20364;-82
2023/01/10 01:12:58;;;;;;;2.70;1.00;;;;;;;5.88;100.00;100123.47;6123414;23;20109;-82
2023/01/10 01:15:26;;;;;;;3.75;1.38;;;;;;;5.72;100.00;100093.28;6123169;23;20040;-83
2023/01/10 01:17:53;;;;;;;3.67;1.35;;;;;;;5.68;100.00;100090.81;6123642;23;20109;-82
2023/01/10 01:20:20;;;;;;;3.45;1.10;;;;;;;5.74;100.00;100106.38;6124090;23;20053;-81
2023/01/10 01:22:47;;;;;;;3.20;1.17;;;;;;;5.26;100.00;100020.34;6122810;23;20045;-82
2023/01/10 01:25:13;;;;;;;2.47;1.00;;;;;;;6.33;100.00;100221.00;6121684;23;20014;-81
2023/01/10 01:27:40;;;;;;;1.92;1.27;;;;;;;5.45;100.00;100081.03;6124165;23;20462;-82
2023/01/10 01:30:09;;;;;;;1.58;1.20;;;;;;;5.81;100.00;100160.47;6123862;23;20101;-80
2023/01/10 01:32:36;;;;;;;2.67;1.13;;;;;;;5.70;100.00;100139.78;6123699;23;20024;-82
2023/01/10 01:35:03;;;;;;;4.18;1.08;;;;;;;6.07;100.00;100213.09;6124325;23;20026;-81
2023/01/10 01:37:30;;;;;;;3.80;1.40;;;;;;;5.36;100.00;100100.53;6124578;23;20052;-81
2023/01/10 01:39:56;;;;;;;3.13;1.58;;;;;;;5.66;100.00;100148.69;6123968;23;20018;-81
2023/01/10 01:42:29;;;;;;;3.22;1.45;;;;;;;5.48;100.00;100165.84;6122879;23;20026;-81
2023/01/10 01:45:08;;;;;;;4.72;1.23;;;;;;;6.09;100.00;100255.13;6123153;23;20014;-81
2023/01/10 01:47:43;;;;;;;2.97;1.20;;;;;;;5.44;100.00;100153.72;6123352;23;20104;-81
2023/01/10 01:50:18;;;;;;;2.58;1.17;;;;;;;6.04;100.00;100236.84;6124035;23;20022;-82
2023/01/10 01:52:47;;;;;;;1.35;1.10;;;;;;;5.81;100.00;100186.75;6123231;23;20037;-82
2023/01/10 01:55:14;;;;;;;2.75;1.50;;;;;;;5.84;100.00;100202.41;6123785;23;20041;-82
2023/01/10 01:57:41;;;;;;;2.88;1.60;;;;;;;6.32;100.00;100305.22;6123709;23;20101;-82
2023/01/10 02:00:09;;;;;;;2.17;1.40;;;;;;;6.04;100.00;100243.88;6097487;23;20106;-82
2023/01/10 02:02:43;;;;;;;2.70;1.40;;;;;;;5.46;100.00;100154.53;6121756;23;20070;-81
2023/01/10 02:05:28;;;;;;;3.00;1.30;;;;;;;6.10;100.00;100260.34;6123780;23;20026;-82
2023/01/10 02:07:57;;;;;;;2.60;1.20;;;;;;;5.51;100.00;100183.28;6123668;23;20022;-82
2023/01/10 02:10:32;;;;;;;2.60;1.30;;;;;;;5.63;100.00;100190.78;6123325;23;20022;-82
2023/01/10 02:13:03;;;;;;;3.72;1.40;;;;;;;6.07;100.00;100270.06;6123265;23;20418;-82
2023/01/10 02:15:30;;;;;;;2.40;1.42;;;;;;;6.06;100.00;100257.84;6122578;23;20014;-83
2023/01/10 02:18:00;;;;;;;3.40;1.52;;;;;;;4.79;100.00;100042.78;6122302;23;20094;-81
2023/01/10 02:20:30;;;;;;;4.07;1.40;;;;;;;6.12;100.00;100281.31;6123096;23;20024;-80
2023/01/10 02:23:18;;;;;;;2.73;1.47;;;;;;;6.35;100.00;100326.16;6123104;23;20017;-81
2023/01/10 02:26:00;;;;;;;2.65;1.50;;;;;;;6.40;100.00;100328.66;6122757;23;20422;-83
2023/01/10 02:28:48;;;;;;;1.92;1.08;;;;;;;6.40;100.00;100342.66;6097646;23;20124;-83
2023/01/10 02:31:28;;;;;;;2.25;1.20;;;;;;;6.35;100.00;100336.69;6123462;23;20343;-81
2023/01/10 02:34:19;;;;;;;5.00;1.60;;;;;;;6.33;100.00;100344.63;6123888;23;20021;-82
2023/01/10 02:37:04;;;;;;;2.72;1.08;;;;;;;5.88;100.00;100259.22;6129818;23;20037;-81
2023/01/10 02:39:45;;;;;;;2.90;1.38;;;;;;;6.13;100.00;100311.97;6129046;23;20014;-81
2023/01/10 02:42:18;;;;;;;;;;;;;;;6.27;100.00;100350.06;6126326;23;20116;-81
2023/01/10 02:45:22;;;;;;;5.53;1.60;;;;;;;6.09;100.00;100348.00;6122678;23;19917;-82
2023/01/10 02:47:48;;;;;;;4.07;1.40;;;;;;;5.98;100.00;100334.31;6114325;23;20113;-80
2023/01/10 02:50:34;;;;;;;2.00;1.08;;;;;;;6.17;100.00;100369.66;6121513;23;20121;-82
2023/01/10 02:53:05;;;;;;;2.08;0.88;;;;;;;6.05;100.00;100348.97;6132324;23;20045;-81
2023/01/10 02:55:53;;;;;;;1.88;1.05;;;;;;;6.09;100.00;100352.38;6128901;23;20022;-81
2023/01/10 02:58:42;;;;;;;2.00;1.17;;;;;;;6.19;100.00;100369.59;6097880;23;20499;-81
2023/01/10 03:01:30;;;;;;;2.28;1.05;;;;;;;6.16;100.00;100372.31;6094069;23;20029;-80
2023/01/10 03:04:13;;;;;;;2.67;1.25;;;;;;;5.95;100.00;100352.78;6120867;23;20025;-82
2023/01/10 03:06:58;;;;;;;3.42;1.02;;;;;;;6.01;100.00;100372.75;6122664;23;20028;-81
2023/01/10 03:09:24;;;;;;;1.42;0.95;;;;;;;5.94;100.00;100398.38;6122815;23;20033;-81
2023/01/10 03:12:00;;;;;;;1.58;0.98;;;;;;;5.81;100.00;100381.19;6122127;23;20022;-82
2023/01/10 03:14:29;;;;;;;3.03;1.00;;;;;;;5.79;100.00;100404.88;6121976;23;20018;-80
2023/01/10 03:17:05;;;;;;;4.15;1.00;;;;;;;5.75;100.00;100391.88;6122268;23;20018;-81
2023/01/10 03:19:36;;;;;;;5.57;0.95;;;;;;;5.88;100.00;100406.38;6122675;23;20018;-81
2023/01/10 03:22:05;;;;;;;1.92;1.13;;;;;;;5.72;100.00;100370.91;6121947;23;20032;-81
2023/01/10 03:24:40;;;;;;;2.05;0.93;;;;;;;5.55;100.00;100359.09;6121847;23;20170;-80
2023/01/10 03:27:28;;;;;;;2.05;0.90;;;;;;;5.70;100.00;100389.34;6123382;23;20021;-81
2023/01/10 03:30:09;;;;;;;3.08;1.10;;;;;;;5.56;100.00;100371.34;6124072;23;20022;-81
2023/01/10 03:32:36;;;;;;;2.40;1.10;;;;;;;5.69;100.00;100408.66;6125243;23;20649;-86
2023/01/10 03:35:04;;;;;;;2.55;0.95;;;;;;;5.34;100.00;100357.06;6125148;23;20018;-84
2023/01/10 03:37:48;;;;;;;3.30;1.00;;;;;;;5.75;100.00;100447.03;6125362;23;20014;-83
2023/01/10 03:40:35;;;;;;;3.50;1.17;;;;;;;5.38;100.00;100378.84;6125171;23;20018;-82
2023/01/10 03:46:02;;;;;;;4.75;1.13;;;;;;;5.57;100.00;100393.22;6124149;23;20014;-83
2023/01/10 03:48:35;;;;;;;7.35;1.20;;;;;;;5.58;100.00;100393.19;6099160;23;20375;-82
2023/01/10 03:51:05;;;;;;;4.40;1.20;;;;;;;5.16;100.00;100342.66;6125143;23;20022;-82
2023/01/10 03:53:33;;;;;;;2.70;1.08;;;;;;;5.55;100.00;100406.38;6126222;23;20381;-82
2023/01/10 03:56:00;;;;;;;2.30;1.30;;;;;;;5.52;100.00;100414.34;6126277;23;20024;-83
2023/01/10 03:58:30;;;;;;;2.42;1.00;;;;;;;5.79;100.00;100478.47;6099722;23;20022;-83
2023/01/10 04:00:56;;;;;;;3.28;1.17;;;;;;;4.83;100.00;100341.72;6125265;23;20105;-81
2023/01/10 04:03:23;;;;;;;7.05;1.58;;;;;;;5.33;100.00;100441.13;6124861;23;20033;-80
2023/01/10 04:05:50;;;;;;;2.83;1.20;;;;;;;5.46;100.00;100480.19;6123277;23;20041;-81
2023/01/10 04:08:16;;;;;;;4.30;1.42;;;;;;;5.52;100.00;100506.28;6125129;23;20427;-82
2023/01/10 04:10:43;;;;;;;3.95;1.00;;;;;;;5.13;100.00;100434.59;6124715;23;20022;-80
2023/01/10 04:13:09;;;;;;;4.82;1.13;;;;;;;5.59;100.00;100493.84;6124786;23;20101;-80
2023/01/10 04:15:36;;;;;;;3.10;1.45;;;;;;;5.45;100.00;100480.22;6124704;23;20507;-82
2023/01/10 04:18:02;;;;;;;1.90;0.80;;;;;;;5.15;100.00;100421.44;6099482;23;20041;-80
2023/01/10 04:20:29;;;;;;;4.97;1.08;;;;;;;4.93;100.00;100389.59;6125243;23;20028;-83
2023/01/10 04:22:55;;;;;;;4.05;1.20;;;;;;;5.58;100.00;100514.00;6098827;23;20018;-81
2023/01/10 04:25:23;;;;;;;1.85;0.80;;;;;;;5.52;100.00;100534.31;6125422;23;20026;-81
2023/01/10 04:27:50;;;;;;;2.55;1.00;;;;;;;5.45;100.00;100528.34;6124953;23;20033;-81
2023/01/10 04:30:18;;;;;;;3.10;1.13;;;;;;;5.28;100.00;100526.13;6125518;23;20100;-81
2023/01/10 04:32:46;;;;;;;4.18;1.20;;;;;;;4.79;100.00;100478.25;6125520;23;20032;-80
2023/01/10 04:35:12;;;;;;;4.68;1.23;;;;;;;4.85;100.00;100496.50;6124647;23;20018;-82
2023/01/10 04:37:39;;;;;;;4.57;1.20;;;;;;;4.40;100.00;100436.28;6124497;23;20014;-83
2023/01/10 04:40:06;;;;;;;3.75;1.00;;;;;;;4.78;100.00;100503.63;6099550;23;20022;-84
2023/01/10 04:42:32;;;;;;;4.07;1.63;;;;;;;5.06;100.00;100511.75;6125277;23;20505;-83
2023/01/10 04:44:59;;;;;;;5.97;1.27;;;;;;;5.02;100.00;100489.13;6125611;23;20033;-82
2023/01/10 04:47:25;;;;;;;9.07;1.45;;;;;;;4.70;100.00;100418.13;6125149;23;20022;-81
2023/01/10 04:49:52;;;;;;;4.47;1.45;;;;;;;3.90;100.00;100305.44;6131676;23;20101;-80
2023/01/10 04:52:18;;;;;;;2.97;1.33;;;;;;;5.13;100.00;100521.22;6125097;23;20032;-81
2023/01/10 04:54:45;;;;;;;6.40;2.60;;;;;;;5.16;100.00;100534.28;6124440;23;20028;-81
2023/01/10 04:57:11;;;;;;;4.15;1.35;;;;;;;5.20;100.00;100562.16;6124849;23;20491;-82
2023/01/10 04:59:38;;;;;;;5.82;1.67;;;;;;;4.85;100.00;100517.50;6124833;23;20101;-80
2023/01/10 05:02:05;;;;;;;4.88;1.70;;;;;;;4.55;100.00;100475.28;6123176;23;20061;-83
2023/01/10 05:04:31;;;;;;;7.07;2.47;;;;;;;4.32;100.00;100432.94;6124966;23;20018;-82
2023/01/10 05:06:58;;;;;;;7.65;1.88;;;;;;;4.90;100.00;100533.97;6124327;23;20041;-83
2023/01/10 05:09:24;;;;;;;7.28;1.60;;;;;;;5.22;100.00;100581.38;6124118;23;20037;-81
2023/01/10 05:11:51;;;;;;;7.10;2.05;;;;;;;5.14;100.00;100585.94;6125745;23;20018;-83
2023/01/10 05:14:18;;;;;;;6.35;2.03;;;;;;;4.81;100.00;100526.31;6125536;23;20059;-82
2023/01/10 05:16:44;;;;;;;5.32;2.00;;;;;;;4.48;100.00;100486.78;6124779;23;20014;-80
2023/01/10 05:19:12;;;;;;;7.13;1.98;;;;;;;4.95;100.00;100563.63;6124877;23;20314;-81
2023/01/10 05:21:38;;;;;;;6.57;1.60;;;;;;;5.00;100.00;100579.28;6124802;23;20018;-83
2023/01/10 05:24:05;;;;;;;6.70;1.95;;;;;;;4.26;100.00;100454.03;6125508;23;20109;-81
2023/01/10 05:26:32;;;;;;;6.20;2.15;;;;;;;4.27;100.00;100455.75;6125824;23;20021;-83
2023/01/10 05:28:58;;;;;;;6.13;2.08;;;;;;;4.80;100.00;100562.19;6124481;23;20247;-81
2023/01/10 05:31:25;;;;;;;6.80;1.73;;;;;;;4.55;100.00;100517.25;6124618;23;20447;-82
2023/01/10 05:33:52;;;;;;;8.77;2.55;;;;;;;4.50;100.00;100519.09;6098704;23;20018;-83
2023/01/10 05:36:18;;;;;;;10.23;2.50;;;;;;;4.85;100.00;100575.22;6123952;23;20481;-83
2023/01/10 05:38:45;;;;;;;5.88;2.40;;;;;;;4.90;100.00;100581.22;6124459;23;20025;-82
2023/01/10 05:41:12;;;;;;;7.38;2.65;;;;;;;4.71;100.00;100556.28;6124001;23;20612;-81
2023/01/10 05:43:38;;;;;;;7.85;2.55;;;;;;;4.43;100.00;100498.25;6123570;23;20429;-82
2023/01/10 05:46:06;;;;;;;5.90;2.58;;;;;;;4.69;100.00;100545.81;6125208;23;20018;-82
2023/01/10 05:48:32;;;;;;;5.68;2.10;;;;;;;4.89;100.00;100582.97;6124442;23;20018;-83
2023/01/10 05:50:59;;;;;;;7.88;2.92;;;;;;;4.85;100.00;100580.47;6125271;23;20417;-85
2023/01/10 05:53:26;;;;;;;8.85;2.65;;;;;;;4.93;100.00;100596.91;6125090;23;20024;-83
2023/01/10 05:55:58;;;;;;;9.68;2.67;;;;;;;5.07;100.00;100628.97;6125017;23;20018;-84
2023/01/10 05:58:25;;;;;;;10.18;2.90;;;;;;;4.39;100.00;100526.31;6124128;23;20360;-85
2023/01/10 06:00:53;;;;;;;10.82;3.17;;;;;;;4.08;100.00;100483.25;6123683;23;20104;-83
2023/01/10 06:03:20;;;;;;;7.53;3.42;;;;;;;4.77;100.00;100593.72;6124095;23;20034;-85
2023/01/10 06:05:46;;;;;;;7.32;3.10;;;;;;;4.71;100.00;100595.63;6124569;23;20014;-83
2023/01/10 06:08:14;;;;;;;12.10;3.28;;;;;;;3.94;100.00;100495.69;6124039;23;20026;-83
2023/01/10 06:10:41;;;;;;;8.68;3.38;;;;;;;4.48;100.00;100577.69;6123722;23;20164;-82
2023/01/10 06:13:08;;;;;;;11.70;3.55;;;;;;;4.13;100.00;100518.06;6124334;23;20029;-84
2023/01/10 06:15:35;;;;;;;11.75;3.75;;;;;;;4.78;100.00;100640.03;6123703;23;20073;-84
2023/01/10 06:18:02;;;;;;;9.63;3.03;;;;;;;4.51;100.00;100596.88;6123564;23;20064;-84
2023/01/10 06:20:29;;;;;;;12.13;3.40;;;;;;;4.30;100.00;100565.78;6123984;23;20456;-84
2023/01/10 06:22:55;;;;;;;13.00;3.38;;;;;;;3.88;100.00;100502.81;6122672;23;20045;-84
2023/01/10 06:25:22;;;;;;;7.53;3.20;;;;;;;4.55;100.00;100622.16;6123731;23;20026;-85
2023/01/10 06:27:48;;;;;;;9.05;2.88;;;;;;;5.14;100.00;100696.19;6098284;23;20093;-84
2023/01/10 06:30:15;;;;;;;7.03;2.85;;;;;;;5.12;100.00;100690.13;6123866;23;20022;-85
2023/01/10 06:32:41;;;;;;;13.63;3.17;;;;;;;4.82;100.00;100617.25;6122885;23;20433;-85
2023/01/10 06:35:08;;;;;;;9.38;2.92;;;;;;;4.35;100.00;100549.97;6097225;23;20040;-85
2023/01/10 06:37:35;;;;;;;13.48;3.13;;;;;;;5.11;100.00;100667.38;6124056;23;20018;-86
2023/01/10 06:40:03;;;;;;;10.77;2.92;;;;;;;4.94;100.00;100638.84;6124041;23;20029;-87
2023/01/10 06:42:30;;;;;;;9.73;3.00;;;;;;;4.52;100.00;100566.25;6124628;23;20464;-86
2023/01/10 06:44:56;;;;;;;8.13;3.28;;;;;;;4.96;100.00;100649.31;6125005;23;20033;-86
2023/01/10 06:47:23;;;;;;;11.73;3.03;;;;;;;5.18;100.00;100684.75;6113460;23;20049;-82
2023/01/10 06:49:49;;;;;;;8.77;3.10;;;;;;;5.42;100.00;100743.75;6130594;23;20538;-84
2023/01/10 06:52:16;;;;;;;12.73;3.85;;;;;;;5.16;100.00;100723.28;6127250;23;20041;-84
2023/01/10 06:54:43;;;;;;;12.57;3.35;;;;;;;4.44;100.00;100613.59;6125828;23;20105;-85
2023/01/10 06:57:10;;;;;;;16.55;3.55;;;;;;;4.86;100.00;100687.16;6125245;23;20024;-86
2023/01/10 06:59:37;;;;;;;9.80;3.40;;;;;;;5.36;100.00;100769.28;6136614;23;20089;-82
2023/01/10 07:02:03;;;;;;;8.57;2.92;;;;;;;5.35;100.00;100772.81;6141344;23;20074;-85
2023/01/10 07:04:30;;;;;;;15.02;3.25;;;;;;;5.22;100.00;100754.66;6141517;23;20049;-85
2023/01/10 07:06:56;;;;;;;10.35;3.20;;;;;;;5.37;100.00;100765.75;6127191;23;20093;-86
2023/01/10 07:09:23;;;;;;;11.60;2.58;;;;;;;5.28;100.00;100736.16;6126498;23;20104;-85
2023/01/10 07:11:50;;;;;;;8.48;2.45;;;;;;;5.01;100.00;100688.59;6100082;23;20022;-85
2023/01/10 07:14:16;;;;;;;7.30;2.33;;;;;;;5.51;100.00;100769.84;6125889;23;20104;-85
2023/01/10 07:16:43;;;;;;;21.50;6.05;;;;;;;4.62;100.00;100635.13;6125208;23;20451;-84
2023/01/10 07:19:12;;;;;;;10.60;3.30;;;;;;;4.59;100.00;100636.91;6125349;23;20476;-83
2023/01/10 07:21:39;;;;;;;11.38;2.83;;;;;;;5.47;100.00;100790.97;6125907;23;20025;-85
2023/01/10 07:24:06;;;;;;;12.43;2.97;;;;;;;5.15;100.00;100750.44;6126377;23;20384;-84
2023/01/10 07:26:33;;;;;;;12.50;2.78;;;;;;;5.29;100.00;100774.66;6100369;23;20465;-85
2023/01/10 07:28:59;;;;;;;12.65;3.03;;;;;;;5.31;100.00;100792.16;6126304;23;20114;-84
2023/01/10 07:31:26;;;;;;;12.90;2.72;;;;;;;4.72;100.00;100694.41;6099898;23;20109;-84
2023/01/10 07:33:53;;;;;;;9.23;2.38;;;;;;;5.25;100.00;100790.50;6126260;23;20024;-84
2023/01/10 07:36:20;;;;;;;7.70;2.25;;;;;;;5.22;100.00;100770.41;6125253;23;20018;-83
2023/01/10 07:38:46;;;;;;;9.85;2.63;;;;;;;5.45;100.00;100817.25;6125361;23;20018;-86
2023/01/10 07:41:13;;;;;;;10.38;2.63;;;;;;;5.40;100.00;100799.84;6126328;23;20029;-85
2023/01/10 07:43:39;;;;;;;11.73;2.70;;;;;;;5.50;100.00;100817.16;6099591;23;20110;-84
2023/01/10 07:46:08;;;;;;;14.13;4.40;;;;;;;5.47;100.00;100828.59;6126028;23;20097;-84
2023/01/10 07:48:35;;;;;;;11.73;2.75;;;;;;;5.47;100.00;100852.25;6126437;23;20022;-85
2023/01/10 07:51:03;;;;;;;14.07;3.17;;;;;;;4.54;100.00;100712.19;6125177;23;20102;-83
2023/01/10 07:53:29;;;;;;;11.13;3.40;;;;;;;5.21;100.00;100826.44;6125144;23;20018;-85
2023/01/10 07:56:00;;;;;;;8.13;2.70;;;;;;;5.32;100.00;100863.03;6124694;23;20022;-84
2023/01/10 07:58:27;;;;;;;9.20;2.47;;;;;;;4.98;100.00;100797.13;6123968;23;20658;-84
2023/01/10 08:00:58;;;;;;;9.38;2.33;;;;;;;5.17;100.00;100835.28;6125481;23;20021;-84
2023/01/10 08:03:25;;;;;;;13.15;2.72;;;;;;;5.35;100.00;100864.75;6125556;23;20049;-84
2023/01/10 08:06:06;;;;;;;13.73;3.00;;;;;;;5.18;100.00;100849.28;6124264;23;20145;-85
2023/01/10 08:08:33;;;;;;;8.88;2.47;;;;;;;5.03;100.00;100816.28;6128513;23;20026;-87
2023/01/10 08:11:03;;;;;;;10.15;2.25;;;;;;;4.40;100.00;100711.56;6129677;23;20076;-85
2023/01/10 08:13:31;;;;;;;13.05;2.65;;;;;;;4.98;100.00;100802.38;6124459;23;20456;-85
2023/01/10 08:15:58;;;;;;;15.18;2.78;;;;;;;5.24;100.00;100849.16;6124843;23;20657;-85
2023/01/10 08:18:25;;;;;;;8.45;2.53;;;;;;;5.21;100.00;100847.44;6125271;23;20140;-84
2023/01/10 08:20:52;;;;;;;11.43;2.90;;;;;;;5.17;100.00;100832.66;6125613;23;20022;-86
2023/01/10 08:23:20;;;;;;;10.85;2.30;;;;;;;5.22;100.00;100849.19;6100971;23;20032;-85
2023/01/10 08:25:47;;;;;;;6.93;2.80;;;;;;;5.37;100.00;100881.31;6125239;23;20033;-85
2023/01/10 08:28:14;;;;;;;9.88;2.58;;;;;;;4.78;100.00;100788.72;6125407;23;20022;-84
2023/01/10 08:30:40;;;;;;;13.40;2.67;;;;;;;4.94;100.00;100822.56;6125130;23;20022;-83
2023/01/10 08:33:08;;;;;;;12.32;2.40;;;;;;;5.35;100.00;100884.00;6126126;23;20028;-83
2023/01/10 08:35:40;;;;;;;12.43;2.83;;;;;;;5.15;100.00;100863.31;6124540;23;20527;-85
2023/01/10 08:38:08;;;;;;;9.00;2.40;;;;;;;5.37;100.00;100890.06;6125185;23;20022;-84
2023/01/10 08:40:34;;;;;;;12.75;2.97;;;;;;;5.11;100.00;100845.88;6125831;23;20021;-83
2023/01/10 08:43:06;;;;;;;12.15;2.72;;;;;;;5.29;100.00;100874.44;6100588;23;20029;-83
2023/01/10 08:45:33;;;;;;;12.90;2.97;;;;;;;5.52;100.00;100895.03;6100219;23;20032;-83
2023/01/10 08:48:00;;;;;;;18.17;2.80;;;;;;;4.95;100.00;100810.28;6133396;23;20345;-81
2023/01/10 08:50:27;;;;;;;12.25;2.80;;;;;;;5.45;100.00;100903.94;6135254;23;20071;-82
2023/01/10 08:52:56;;;;;;;12.90;2.83;;;;;;;5.50;100.00;100902.09;6128218;23;20088;-83
2023/01/10 08:55:23;;;;;;;14.50;2.80;;;;;;;5.48;100.00;100890.75;6125560;23;20056;-84
2023/01/10 08:57:50;;;;;;;9.88;2.20;;;;;;;4.74;100.00;100763.44;6124589;23;20040;-83
2023/01/10 09:00:16;;;;;;;17.30;2.67;;;;;;;5.45;100.00;100882.91;6126451;23;20368;-83
2023/01/10 09:02:43;;;;;;;13.68;3.10;;;;;;;5.06;100.00;100805.72;6094400;23;20412;-84
2023/01/10 09:05:10;;;;;;;12.13;2.78;;;;;;;5.03;100.00;100769.06;6095260;23;20018;-82
2023/01/10 09:07:51;;;;;;;13.73;2.95;;;;;;;5.38;100.00;100823.50;6096038;23;20041;-82
2023/01/10 09:10:18;;;;;;;14.05;2.72;;;;;;;5.46;100.00;100844.38;6095550;23;20036;-82
2023/01/10 09:12:53;;;;;;;12.80;2.80;;;;;;;5.58;100.00;100860.78;6096065;23;20018;-83
2023/01/10 09:15:27;;;;;;;7.88;2.55;;;;;;;5.64;100.00;100872.94;6099664;23;20536;-84
2023/01/10 09:17:56;;;;;;;14.02;2.95;;;;;;;5.97;100.00;100924.00;6094291;23;20333;-82
2023/01/10 09:20:24;;;;;;;9.20;2.58;;;;;;;5.45;100.00;100824.25;6095981;23;20078;-83
2023/01/10 09:22:51;;;;;;;12.65;2.70;;;;;;;6.00;100.00;100913.41;6095703;23;20024;-84
2023/01/10 09:25:18;;;;;;;12.43;2.80;;;;;;;5.45;100.00;100829.53;6094860;23;20022;-83
2023/01/10 09:27:44;;;;;;;19.02;2.95;;;;;;;5.22;100.00;100786.16;6095349;23;20426;-84
2023/01/10 09:30:11;;;;;;;16.20;2.90;;;;;;;5.88;100.00;100898.75;6097994;23;20026;-84
2023/01/10 09:32:38;;;;;;;12.30;2.92;;;;;;;5.65;100.00;100843.16;6096614;23;20101;-84
2023/01/10 09:35:05;;;;;;;11.77;2.65;;;;;;;5.94;100.00;100885.50;6097170;23;20046;-84
2023/01/10 09:37:33;;;;;;;14.02;3.75;;;;;;;6.36;100.00;100937.22;6094381;23;20025;-84
2023/01/10 09:40:00;;;;;;;15.90;2.53;;;;;;;6.39;100.00;100945.06;6096631;23;20073;-85
2023/01/10 09:42:53;;;;;;;12.20;2.38;;;;;;;6.17;100.00;100895.53;6097284;23;20045;-82
2023/01/10 09:45:47;;;;;;;14.90;2.92;;;;;;;6.51;100.00;100940.41;6096163;23;20082;-84
2023/01/10 09:48:31;;;;;;;9.65;2.40;;;;;;;6.51;100.00;100926.38;6098286;23;20019;-82
2023/01/10 09:51:16;;;;;;;12.52;3.05;;;;;;;6.85;100.00;100945.78;6096677;23;20094;-84
2023/01/10 09:53:44;;;;;;;12.75;2.40;;;;;;;6.48;100.00;100874.69;6098035;23;20030;-83
2023/01/10 09:56:15;;;;;;;13.20;2.78;;;;;;;6.40;100.00;100854.72;6098041;23;20025;-84
2023/01/10 09:58:43;;;;;;;12.93;2.13;;;;;;;6.40;100.00;100857.34;6097784;23;20769;-86
2023/01/10 10:01:20;;;;;;;13.18;2.22;;;;;;;6.66;100.00;100900.59;6098081;23;20023;-85
2023/01/10 10:04:15;;;;;;;9.77;2.10;;;;;;;6.98;100.00;100959.53;6123462;23;20030;-86
2023/01/10 10:06:42;;;;;;;10.30;1.90;;;;;;;6.75;100.00;100914.44;6128485;23;20437;-86
2023/01/10 10:09:18;;;;;;;12.13;2.40;;;;;;;6.51;100.00;100844.81;6129101;23;20101;-84
2023/01/10 10:12:38;;;;;;;9.02;2.00;;;;;;;7.21;100.00;100954.59;6128995;23;20076;-85
2023/01/10 10:15:26;;;;;;;10.52;1.70;;;;;;;7.20;100.00;100955.50;6067388;23;20029;-85
2023/01/10 10:18:17;;;;;;;8.00;1.50;;;;;;;7.31;100.00;100956.09;6066899;23;20109;-84
2023/01/10 10:20:54;;;;;;;13.90;2.13;;;;;;;6.92;99.75;100902.63;6118762;23;20105;-85
2023/01/10 10:23:27;;;;;;;12.27;2.10;;;;;;;6.97;99.69;100913.03;6126352;23;20018;-84
2023/01/10 10:26:11;;;;;;;7.00;1.73;;;;;;;7.15;100.00;100946.81;6125459;23;20017;-87
2023/01/10 10:29:00;;;;;;;15.18;2.08;;;;;;;7.21;100.00;100948.47;6124511;23;20018;-87
2023/01/10 10:31:34;;;;;;;13.43;2.00;;;;;;;7.32;100.00;100951.69;6116442;23;20025;-85
2023/01/10 10:34:07;;;;;;;12.82;2.13;;;;;;;7.40;99.65;100962.88;6125062;23;20025;-85
2023/01/10 10:36:44;;;;;;;8.32;2.10;;;;;;;7.01;98.92;100876.06;6098866;23;20107;-85
2023/01/10 10:39:16;;;;;;;11.82;2.70;;;;;;;7.04;99.39;100869.84;6125114;23;20018;-86
2023/01/10 10:41:45;;;;;;;13.63;2.58;;;;;;;7.44;99.11;100925.03;6125107;23;20022;-89
2023/01/10 10:44:36;;;;;;;13.13;2.33;;;;;;;7.67;98.25;100964.84;6122772;23;20028;-86
2023/01/10 10:47:12;;;;;;;9.40;2.33;;;;;;;6.67;100.00;100794.41;6127489;23;20010;-85
2023/01/10 10:49:44;;;;;;;17.48;2.10;;;;;;;7.53;100.00;100964.34;6138985;23;20025;-84
2023/01/10 10:52:22;;;;;;;13.10;2.55;;;;;;;5.93;100.00;100712.91;6130057;23;20017;-87
2023/01/10 10:54:50;;;;;;;12.18;2.88;;;;;;;7.33;100.00;100959.56;6127266;23;20322;-84
2023/01/10 10:57:20;;;;;;;8.52;2.42;;;;;;;7.47;100.00;100958.34;6125467;23;20041;-86
2023/01/10 10:59:48;;;;;;;;;;;;;;;7.47;100.00;100960.97;6129196;23;20105;-85
2023/01/10 11:02:27;;;;;;;14.23;2.65;;;;;;;7.38;100.00;100960.31;6124188;23;19967;-84
2023/01/10 11:04:58;;;;;;;15.07;2.92;;;;;;;7.32;100.00;100939.38;6122099;23;20033;-83
2023/01/10 11:07:28;;;;;;;11.57;3.30;;;;;;;7.50;100.00;100953.00;6123461;23;20117;-84
2023/01/10 11:10:07;;;;;;;9.05;1.98;;;;;;;7.58;100.00;100956.28;6123616;23;20093;-85
2023/01/10 11:12:40;;;;;;;15.38;3.90;;;;;;;7.39;100.00;100946.25;6099689;23;20097;-86
2023/01/10 11:15:07;;;;;;;16.38;3.58;;;;;;;7.45;100.00;100949.59;6124465;23;20018;-86
2023/01/10 11:17:40;;;;;;;10.77;3.15;;;;;;;6.75;100.00;100820.56;6125312;23;20100;-84
2023/01/10 11:20:16;;;;;;;16.75;5.97;;;;;;;7.62;100.00;100957.94;6126588;23;20022;-85
2023/01/10 11:22:49;;;;;;;14.77;3.92;;;;;;;6.92;100.00;100822.78;6127787;23;20033;-83
2023/01/10 11:25:21;;;;;;;15.00;2.58;;;;;;;7.30;100.00;100906.94;6129215;23;20024;-85
2023/01/10 11:27:51;;;;;;;12.13;3.25;;;;;;;7.42;100.00;100925.97;6142571;23;20037;-85
2023/01/10 11:30:18;;;;;;;17.50;3.30;;;;;;;7.57;100.00;100951.91;6145278;23;20036;-84
2023/01/10 11:32:54;;;;;;;10.10;2.58;;;;;;;7.04;100.00;100865.47;6144810;23;20014;-85
2023/01/10 11:35:26;;;;;;;13.45;2.75;;;;;;;7.30;100.00;100904.28;6144223;23;20127;-84
2023/01/10 11:38:03;;;;;;;17.73;2.80;;;;;;;7.55;100.00;100956.38;6145048;23;20032;-82
2023/01/10 11:40:32;;;;;;;8.57;2.47;;;;;;;7.30;100.00;100930.66;6128749;23;20081;-86
2023/01/10 11:43:19;;;;;;;14.48;3.20;;;;;;;7.37;100.00;100962.97;6138823;23;20049;-83
2023/01/10 11:45:53;;;;;;;13.38;2.92;;;;;;;7.31;100.00;100955.22;6116806;23;20068;-82
2023/01/10 11:48:25;;;;;;;16.58;2.88;;;;;;;7.39;100.00;100948.88;6144651;23;20031;-84
2023/01/10 11:51:35;;;;;;;13.13;2.90;;;;;;;7.46;100.00;100931.13;6144624;23;20053;-84